createdAt,value
2019-04-03T00:00:17.311Z,28
2019-04-03T00:01:10.711Z,27.9
2019-04-03T00:01:57.830Z,27.9
2019-04-03T00:03:40.876Z,27.7
2019-04-03T00:04:26.590Z,27.6
2019-04-03T00:05:17.443Z,27.6
2019-04-03T00:06:10.698Z,27.4
2019-04-03T00:06:57.226Z,27.4
2019-04-03T00:07:48.348Z,27.3
2019-04-03T00:08:52.168Z,27.3
2019-04-03T00:09:27.094Z,27.1
2019-04-03T00:10:17.724Z,27.1
2019-04-03T00:11:12.767Z,27
2019-04-03T00:11:57.990Z,26.9
2019-04-03T00:12:52.378Z,26.9
2019-04-03T00:13:42.534Z,26.8
2019-04-03T00:14:43.370Z,26.7
2019-04-03T00:15:21.070Z,26.6
2019-04-03T00:16:08.665Z,26.6
2019-04-03T00:16:59.436Z,26.5
2019-04-03T00:17:51.990Z,26.4
2019-04-03T00:18:38.513Z,26.3
2019-04-03T00:19:28.751Z,26.3
2019-04-03T00:20:20.625Z,26
2019-04-03T00:21:09.022Z,26.6
2019-04-03T00:22:01.064Z,27.9
2019-04-03T00:22:56.455Z,29
2019-04-03T00:23:39.309Z,29.9
2019-04-03T00:24:32.439Z,30.4
2019-04-03T00:25:18.560Z,30.9
2019-04-03T00:26:09.239Z,31.4
2019-04-03T00:27:02.719Z,31.8
2019-04-03T00:27:49.185Z,32.1
2019-04-03T00:28:39.648Z,32.4
2019-04-03T00:29:32.519Z,32.7
2019-04-03T00:30:22.767Z,33
2019-04-03T00:31:10.567Z,32.5
2019-04-03T00:32:03.222Z,32.3
2019-04-03T00:32:50.143Z,31.8
2019-04-03T00:33:39.425Z,31.3
2019-04-03T00:34:32.569Z,31.1
2019-04-03T00:35:19.924Z,30.8
2019-04-03T00:36:10.386Z,30.5
2019-04-03T00:37:03.494Z,30.4
2019-04-03T00:37:52.861Z,30.2
2019-04-03T00:38:39.906Z,30.1
2019-04-03T00:39:32.431Z,29.9
2019-04-03T00:40:20.413Z,29.8
2019-04-03T00:41:10.529Z,29.7
2019-04-03T00:42:03.266Z,29.6
2019-04-03T00:42:50.923Z,29.5
2019-04-03T00:43:40.883Z,29.4
2019-04-03T00:44:33.601Z,29.3
2019-04-03T00:45:20.993Z,29.3
2019-04-03T00:46:10.522Z,29.2
2019-04-03T00:47:04.140Z,29.1
2019-04-03T00:47:50.090Z,29
2019-04-03T00:48:41.508Z,28.9
2019-04-03T00:49:34.533Z,28.9
2019-04-03T00:50:20.880Z,28.8
2019-04-03T00:51:12.257Z,28.7
2019-04-03T00:52:03.703Z,28.6
2019-04-03T00:52:52.005Z,28.5
2019-04-03T00:53:41.116Z,28.4
2019-04-03T00:54:38.622Z,28.4
2019-04-03T00:55:22.367Z,28.3
2019-04-03T00:56:12.096Z,28.2
2019-04-03T00:57:04.869Z,28.1
2019-04-03T00:57:52.952Z,28
2019-04-03T00:58:42.049Z,27.9
2019-04-03T00:59:35.095Z,27.9
2019-04-03T01:00:21.132Z,27.8
2019-04-03T01:01:12.545Z,27.7
2019-04-03T01:02:04.340Z,27.6
2019-04-03T01:02:51.799Z,27.6
2019-04-03T01:03:42.410Z,27.4
2019-04-03T01:04:35.713Z,27.3
2019-04-03T01:05:23.257Z,27.3
2019-04-03T01:06:12.570Z,27.2
2019-04-03T01:07:05.780Z,27.1
2019-04-03T01:07:53.145Z,27.1
2019-04-03T01:08:42.345Z,26.9
2019-04-03T01:09:35.048Z,26.9
2019-04-03T01:10:22.082Z,26.8
2019-04-03T01:11:12.784Z,26.8
2019-04-03T01:12:05.356Z,26.6
2019-04-03T01:12:53.197Z,26.6
2019-04-03T01:13:43.560Z,26.5
2019-04-03T01:14:36.674Z,26.4
2019-04-03T01:15:23.523Z,26.3
2019-04-03T01:16:13.484Z,26.3
2019-04-03T01:17:07.308Z,25.9
2019-04-03T01:17:53.154Z,27.3
2019-04-03T01:18:45.653Z,28.3
2019-04-03T01:19:37.058Z,29.3
2019-04-03T01:20:22.406Z,29.9
2019-04-03T01:21:15.804Z,30.4
2019-04-03T01:22:02.889Z,30.9
2019-04-03T01:22:53.208Z,31.3
2019-04-03T01:23:46.822Z,31.7
2019-04-03T01:24:33.591Z,32.1
2019-04-03T01:25:23.196Z,32.3
2019-04-03T01:26:17.882Z,32.6
2019-04-03T01:27:04.458Z,32.9
2019-04-03T01:27:54.283Z,32.4
2019-04-03T01:28:47.772Z,32.3
2019-04-03T01:29:33.278Z,31.9
2019-04-03T01:30:24.901Z,31.4
2019-04-03T01:31:17.086Z,31.1
2019-04-03T01:32:04.154Z,30.8
2019-04-03T01:32:57.255Z,30.6
2019-04-03T01:33:47.953Z,30.4
2019-04-03T01:34:34.461Z,30.3
2019-04-03T01:35:27.568Z,30.1
2019-04-03T01:36:17.090Z,29.9
2019-04-03T01:37:04.544Z,29.8
2019-04-03T01:37:56.940Z,29.7
2019-04-03T01:38:45.730Z,29.6
2019-04-03T01:39:33.856Z,29.5
2019-04-03T01:40:28.284Z,29.4
2019-04-03T01:41:15.310Z,29.3
2019-04-03T01:42:05.165Z,29.2
2019-04-03T01:42:58.150Z,29.1
2019-04-03T01:43:44.334Z,29.1
2019-04-03T01:44:36.703Z,28.9
2019-04-03T01:45:28.241Z,28.9
2019-04-03T01:46:15.815Z,28.8
2019-04-03T01:47:08.127Z,28.7
2019-04-03T01:47:54.376Z,28.6
2019-04-03T01:48:45.567Z,28.6
2019-04-03T01:49:38.895Z,28.4
2019-04-03T01:50:25.098Z,28.4
2019-04-03T01:51:14.520Z,28.3
2019-04-03T01:52:09.350Z,28.2
2019-04-03T01:52:54.920Z,28.1
2019-04-03T01:53:45.637Z,28.1
2019-04-03T01:54:39.509Z,27.9
2019-04-03T01:55:25.454Z,27.9
2019-04-03T01:57:09.807Z,27.7
2019-04-03T01:57:56.027Z,27.6
2019-04-03T01:58:46.644Z,27.6
2019-04-03T01:59:39.629Z,27.4
2019-04-03T02:00:25.822Z,27.4
2019-04-03T02:01:18.424Z,27.3
2019-04-03T02:02:09.090Z,27.2
2019-04-03T02:02:56.858Z,27.1
2019-04-03T02:03:49.041Z,27.1
2019-04-03T02:04:36.244Z,26.9
2019-04-03T02:05:26.095Z,26.9
2019-04-03T02:06:20.087Z,26.8
2019-04-03T02:07:05.403Z,26.8
2019-04-03T02:07:56.756Z,26.6
2019-04-03T02:08:49.811Z,26.6
2019-04-03T02:09:36.004Z,26.4
2019-04-03T02:10:29.010Z,26.4
2019-04-03T02:11:19.186Z,26.3
2019-04-03T02:12:07.979Z,26.3
2019-04-03T02:13:00.154Z,25.9
2019-04-03T02:13:46.992Z,27.1
2019-04-03T02:14:37.053Z,28.1
2019-04-03T02:15:30.665Z,29.1
2019-04-03T02:16:17.123Z,29.8
2019-04-03T02:17:07.924Z,30.3
2019-04-03T02:18:00.771Z,30.8
2019-04-03T02:18:48.519Z,31.2
2019-04-03T02:19:37.978Z,31.5
2019-04-03T02:20:31.842Z,30.8
2019-04-03T02:21:17.921Z,29.4
2019-04-03T02:22:08.446Z,27.2
2019-04-03T02:23:01.148Z,26.7
2019-04-03T02:23:48.462Z,26.6
2019-04-03T02:24:41.545Z,27.9
2019-04-03T02:25:27.872Z,29.1
2019-04-03T02:26:17.940Z,30
2019-04-03T02:27:10.668Z,30.6
2019-04-03T02:27:57.656Z,31.3
2019-04-03T02:28:47.317Z,31.7
2019-04-03T02:29:40.414Z,32.1
2019-04-03T02:30:28.904Z,32.4
2019-04-03T02:31:24.859Z,32.8
2019-04-03T02:32:08.851Z,32.4
2019-04-03T02:33:04.902Z,32.2
2019-04-03T02:33:49.035Z,31.7
2019-04-03T02:34:44.692Z,31.3
2019-04-03T02:35:28.684Z,30.9
2019-04-03T02:36:24.624Z,30.7
2019-04-03T02:37:09.012Z,30.4
2019-04-03T02:38:00.627Z,30.3
2019-04-03T02:38:49.348Z,30.1
2019-04-03T02:39:39.025Z,29.9
2019-04-03T02:40:35.027Z,29.8
2019-04-03T02:41:18.790Z,29.7
2019-04-03T02:42:15.087Z,29.6
2019-04-03T02:43:00.075Z,29.5
2019-04-03T02:43:56.133Z,29.4
2019-04-03T02:44:40.307Z,29.3
2019-04-03T02:45:34.977Z,29.2
2019-04-03T02:46:20.843Z,29.1
2019-04-03T02:47:12.310Z,29.1
2019-04-03T02:48:06.736Z,28.9
2019-04-03T02:48:49.417Z,28.9
2019-04-03T02:49:45.452Z,28.8
2019-04-03T02:50:31.485Z,28.7
2019-04-03T02:51:24.383Z,28.6
2019-04-03T02:52:10.952Z,28.6
2019-04-03T02:53:07.344Z,28.4
2019-04-03T02:53:52.210Z,28.4
2019-04-03T02:54:46.494Z,28.3
2019-04-03T02:55:30.454Z,28.2
2019-04-03T02:56:24.877Z,28.1
2019-04-03T02:57:10.417Z,28
2019-04-03T02:58:22.959Z,27.9
2019-04-03T03:00:37.893Z,27.7
2019-04-03T03:01:21.840Z,27.6
2019-04-03T03:02:16.248Z,27.6
2019-04-03T03:03:01.049Z,27.4
2019-04-03T03:03:56.238Z,27.4
2019-04-03T03:07:21.545Z,27
2019-04-03T03:08:16.730Z,26.9
2019-04-03T03:09:02.153Z,26.8
2019-04-03T03:09:58.244Z,26.8
2019-04-03T03:10:41.642Z,26.7
2019-04-03T03:11:36.701Z,26.6
2019-04-03T03:12:21.150Z,26.5
2019-04-03T03:13:13.700Z,26.4
2019-04-03T03:14:06.144Z,26.3
2019-04-03T03:14:52.069Z,26.3
2019-04-03T03:15:49.011Z,26.3
2019-04-03T03:16:31.481Z,25.9
2019-04-03T03:17:26.603Z,26.9
2019-04-03T03:18:12.611Z,28.1
2019-04-03T03:19:06.983Z,29
2019-04-03T03:19:52.685Z,29.8
2019-04-03T03:20:48.015Z,30.3
2019-04-03T03:21:31.605Z,30.8
2019-04-03T03:22:28.798Z,31.1
2019-04-03T03:23:11.293Z,31.5
2019-04-03T03:24:08.246Z,31.8
2019-04-03T03:24:53.530Z,32.1
2019-04-03T03:25:44.073Z,32.4
2019-04-03T03:26:32.201Z,32.6
2019-04-03T03:27:22.841Z,32.8
2019-04-03T03:28:18.260Z,32.4
2019-04-03T03:29:31.424Z,32.3
2019-04-03T03:29:53.712Z,31.6
2019-04-03T03:32:35.614Z,31.5
2019-04-03T03:33:45.356Z,30.6
2019-04-03T03:34:14.350Z,30.4
2019-04-03T03:36:04.877Z,30.3
2019-04-03T03:36:42.588Z,29.9
2019-04-03T03:37:21.047Z,29.9
2019-04-03T03:37:56.822Z,29.8
2019-04-03T03:38:52.949Z,29.7
2019-04-03T03:39:37.697Z,29.6
2019-04-03T03:40:27.647Z,29.5
2019-04-03T03:41:24.794Z,29.4
2019-04-03T03:42:10.195Z,29.3
2019-04-03T03:42:58.723Z,29.2
2019-04-03T03:43:51.328Z,29.1
2019-04-03T03:44:47.052Z,29
2019-04-03T03:45:33.169Z,28.9
2019-04-03T03:46:19.135Z,28.8
2019-04-03T03:47:12.917Z,28.7
2019-04-03T03:47:58.161Z,28.6
2019-04-03T03:48:57.089Z,28.6
2019-04-03T03:49:38.885Z,28.4
2019-04-03T03:50:36.410Z,28.4
2019-04-03T03:51:18.077Z,28.3
2019-04-03T03:52:14.606Z,28.2
2019-04-03T03:52:58.451Z,28.1
2019-04-03T03:53:56.167Z,28
2019-04-03T03:54:38.682Z,27.9
2019-04-03T03:56:19.505Z,27.7
2019-04-03T03:57:15.365Z,27.6
2019-04-03T03:57:58.704Z,27.6
2019-04-03T03:58:54.113Z,27.5
2019-04-03T03:59:38.951Z,27.4
2019-04-03T04:00:34.423Z,27.3
2019-04-03T04:01:19.340Z,27.3
2019-04-03T04:02:16.048Z,27.1
2019-04-03T04:02:59.816Z,27
2019-04-03T04:03:54.099Z,27
2019-04-03T04:04:40.496Z,26.9
2019-04-03T04:05:34.494Z,26.8
2019-04-03T04:06:19.536Z,26.7
2019-04-03T04:07:15.011Z,26.6
2019-04-03T04:07:59.950Z,26.6
2019-04-03T04:08:55.700Z,26.1
2019-04-03T04:09:41.044Z,25.8
2019-04-03T04:10:41.692Z,25.6
2019-04-03T04:11:20.536Z,25.4
2019-04-03T04:12:15.797Z,25.3
2019-04-03T04:12:59.996Z,25.3
2019-04-03T04:13:56.241Z,25.2
2019-04-03T04:14:41.591Z,25.1
2019-04-03T04:15:35.525Z,25.1
2019-04-03T04:16:19.887Z,25
2019-04-03T04:17:24.542Z,24.9
2019-04-03T04:18:02.980Z,24.9
2019-04-03T04:18:51.056Z,24.6
2019-04-03T04:19:43.816Z,24.3
2019-04-03T04:20:30.650Z,24.1
2019-04-03T04:21:22.908Z,23.9
2019-04-03T04:22:18.035Z,23.8
2019-04-03T04:23:04.028Z,23.8
2019-04-03T04:23:50.939Z,23.7
2019-04-03T04:24:40.378Z,23.7
2019-04-03T04:25:34.896Z,23.6
2019-04-03T04:26:18.843Z,23.6
2019-04-03T04:27:12.996Z,23.6
2019-04-03T04:28:01.472Z,23.6
2019-04-03T04:28:51.649Z,23.5
2019-04-03T04:29:43.072Z,23.3
2019-04-03T04:30:30.474Z,23.1
2019-04-03T04:31:22.777Z,23
2019-04-03T04:32:12.784Z,22.9
2019-04-03T04:33:01.095Z,22.9
2019-04-03T04:33:54.443Z,22.9
2019-04-03T04:34:41.664Z,22.9
2019-04-03T04:35:32.908Z,22.8
2019-04-03T04:36:25.269Z,22.8
2019-04-03T04:37:13.639Z,22.9
2019-04-03T04:38:05.553Z,22.8
2019-04-03T04:38:50.249Z,22.8
2019-04-03T04:39:41.213Z,22.8
2019-04-03T04:40:34.417Z,23.9
2019-04-03T04:41:21.406Z,25.7
2019-04-03T04:42:16.036Z,26.9
2019-04-03T04:43:08.152Z,28.3
2019-04-03T04:43:52.964Z,29.5
2019-04-03T04:44:44.041Z,30.5
2019-04-03T04:45:35.529Z,31.1
2019-04-03T04:46:24.890Z,31.4
2019-04-03T04:47:15.011Z,31.5
2019-04-03T04:48:01.958Z,31.7
2019-04-03T04:48:54.576Z,31.9
2019-04-03T04:49:41.743Z,32.1
2019-04-03T04:50:35.031Z,31.9
2019-04-03T04:51:22.174Z,31.3
2019-04-03T04:52:12.275Z,30.9
2019-04-03T04:53:05.640Z,30.7
2019-04-03T04:53:51.406Z,30.4
2019-04-03T04:54:44.051Z,30.2
2019-04-03T04:55:39.447Z,30.1
2019-04-03T04:56:21.720Z,29.8
2019-04-03T04:57:14.682Z,29.7
2019-04-03T04:58:01.128Z,29.6
2019-04-03T04:58:54.628Z,29.4
2019-04-03T04:59:49.626Z,29.4
2019-04-03T05:00:35.017Z,28.9
2019-04-03T05:01:25.873Z,28.5
2019-04-03T05:02:13.267Z,28.3
2019-04-03T05:03:06.480Z,28.1
2019-04-03T05:03:57.021Z,27.9
2019-04-03T05:04:41.799Z,27.8
2019-04-03T05:05:39.327Z,27.7
2019-04-03T05:06:24.494Z,27.6
2019-04-03T05:07:17.554Z,27.4
2019-04-03T05:08:06.384Z,27.3
2019-04-03T05:08:53.652Z,27.3
2019-04-03T05:09:45.983Z,27.2
2019-04-03T05:10:32.975Z,27.1
2019-04-03T05:11:22.691Z,27
2019-04-03T05:12:17.949Z,26.9
2019-04-03T05:13:03.642Z,26.8
2019-04-03T05:13:56.607Z,26.8
2019-04-03T05:14:43.658Z,26.6
2019-04-03T05:15:35.222Z,26.6
2019-04-03T05:16:30.504Z,26.5
2019-04-03T05:17:13.547Z,26.4
2019-04-03T05:18:07.050Z,26.4
2019-04-03T05:18:53.363Z,26.3
2019-04-03T05:19:45.005Z,26.2
2019-04-03T05:20:35.618Z,26.1
2019-04-03T05:21:27.759Z,26.1
2019-04-03T05:22:14.813Z,26
2019-04-03T05:23:06.613Z,25.9
2019-04-03T05:24:13.223Z,25.9
2019-04-03T05:24:45.162Z,25.8
2019-04-03T05:25:37.868Z,25.8
2019-04-03T05:26:28.750Z,25.7
2019-04-03T05:27:18.357Z,25.6
2019-04-03T05:28:06.813Z,25.6
2019-04-03T05:29:10.160Z,25.5
2019-04-03T05:29:45.038Z,25.4
2019-04-03T05:30:38.690Z,25.4
2019-04-03T05:31:25.650Z,25.3
2019-04-03T05:32:19.797Z,25.3
2019-04-03T05:33:06.166Z,25.2
2019-04-03T05:33:53.617Z,25.1
2019-04-03T05:34:49.104Z,24.8
2019-04-03T05:35:38.879Z,25.7
2019-04-03T05:36:28.780Z,27.1
2019-04-03T05:37:24.600Z,28.3
2019-04-03T05:38:04.381Z,29.6
2019-04-03T05:39:03.615Z,30.4
2019-04-03T05:39:45.308Z,31.4
2019-04-03T05:40:36.635Z,30.8
2019-04-03T05:41:29.817Z,30.4
2019-04-03T05:42:16.047Z,30.1
2019-04-03T05:43:09.219Z,29.9
2019-04-03T05:43:55.744Z,29.7
2019-04-03T05:44:45.214Z,29.6
2019-04-03T05:45:42.861Z,29.4
2019-04-03T05:46:29.543Z,29.2
2019-04-03T05:47:18.885Z,29.1
2019-04-03T05:48:18.545Z,28.9
2019-04-03T05:48:59.018Z,28.8
2019-04-03T05:49:57.244Z,28.7
2019-04-03T05:50:41.917Z,28.6
2019-04-03T05:51:25.124Z,28.4
2019-04-03T05:52:15.524Z,28.3
2019-04-03T05:53:09.709Z,28.2
2019-04-03T05:53:58.759Z,28
2019-04-03T05:54:53.451Z,27.9
2019-04-03T05:56:25.979Z,27.7
2019-04-03T05:57:19.372Z,27.6
2019-04-03T05:59:08.123Z,27.4
2019-04-03T05:59:19.273Z,27.2
2019-04-03T06:00:16.706Z,27.2
2019-04-03T06:01:19.523Z,27.1
2019-04-03T06:01:56.368Z,26.9
2019-04-03T06:02:39.987Z,26.9
2019-04-03T06:05:27.593Z,26.6
2019-04-03T06:06:13.940Z,26.4
2019-04-03T06:07:00.539Z,26.4
2019-04-03T06:07:54.817Z,26.3
2019-04-03T06:08:46.928Z,26.2
2019-04-03T06:09:34.696Z,26.1
2019-04-03T06:10:21.496Z,26
2019-04-03T06:11:22.658Z,25.9
2019-04-03T06:12:02.669Z,25.8
2019-04-03T06:12:56.278Z,25.8
2019-04-03T06:13:42.796Z,25.7
2019-04-03T06:14:34.474Z,25.6
2019-04-03T06:15:26.143Z,25.6
2019-04-03T06:16:15.909Z,25.4
2019-04-03T06:17:06.539Z,25.4
2019-04-03T06:17:59.915Z,26.9
2019-04-03T06:18:43.627Z,28.2
2019-04-03T06:19:40.018Z,29.2
2019-04-03T06:20:23.096Z,30.4
2019-04-03T06:21:16.234Z,31.1
2019-04-03T06:22:02.377Z,31.4
2019-04-03T06:22:57.340Z,31.6
2019-04-03T06:23:43.453Z,31.8
2019-04-03T06:24:36.212Z,31.9
2019-04-03T06:25:32.646Z,32.1
2019-04-03T06:26:14.346Z,32.3
2019-04-03T06:27:02.425Z,31.9
2019-04-03T06:27:54.797Z,31.9
2019-04-03T06:28:50.696Z,31.8
2019-04-03T06:29:33.549Z,31.7
2019-04-03T06:30:27.251Z,31.5
2019-04-03T06:31:16.172Z,31.4
2019-04-03T06:32:09.704Z,31.3
2019-04-03T06:32:57.448Z,31.1
2019-04-03T06:33:46.142Z,30.9
2019-04-03T06:34:34.152Z,30.8
2019-04-03T06:35:25.416Z,30.6
2019-04-03T06:36:18.080Z,30.5
2019-04-03T06:37:04.224Z,30.3
2019-04-03T06:37:57.399Z,30.3
2019-04-03T06:38:43.303Z,30.1
2019-04-03T06:39:42.684Z,29.9
2019-04-03T06:40:24.769Z,29.8
2019-04-03T06:41:18.248Z,29.7
2019-04-03T06:42:05.041Z,29.6
2019-04-03T06:42:55.708Z,29.4
2019-04-03T06:43:45.128Z,29.3
2019-04-03T06:44:34.659Z,29.2
2019-04-03T06:45:29.743Z,29.1
2019-04-03T06:46:15.825Z,29
2019-04-03T06:47:10.732Z,28.9
2019-04-03T06:47:54.967Z,28.8
2019-04-03T06:48:46.711Z,28.7
2019-04-03T06:49:35.026Z,28.6
2019-04-03T06:50:28.651Z,28.4
2019-04-03T06:51:18.369Z,28.3
2019-04-03T06:52:05.479Z,28.2
2019-04-03T06:52:57.583Z,28.1
2019-04-03T06:53:44.728Z,28
2019-04-03T06:54:39.203Z,27.9
2019-04-03T06:55:29.054Z,27.8
2019-04-03T06:56:18.223Z,27.7
2019-04-03T06:57:05.504Z,27.6
2019-04-03T06:57:55.700Z,27.5
2019-04-03T06:58:55.017Z,27.4
2019-04-03T06:59:35.323Z,27.3
2019-04-03T07:00:25.697Z,27.2
2019-04-03T07:01:14.685Z,27.1
2019-04-03T07:02:05.195Z,27
2019-04-03T07:02:55.348Z,26.9
2019-04-03T07:05:22.091Z,26.6
2019-04-03T07:06:14.259Z,26.5
2019-04-03T07:07:05.295Z,26.4
2019-04-03T07:07:51.287Z,26.3
2019-04-03T07:08:50.165Z,26.3
2019-04-03T07:09:47.375Z,26.1
2019-04-03T07:10:40.934Z,26.4
2019-04-03T07:11:24.622Z,28
2019-04-03T07:12:03.857Z,28.8
2019-04-03T07:12:54.217Z,29.7
2019-04-03T07:13:42.242Z,30.6
2019-04-03T07:14:35.962Z,31.1
2019-04-03T07:15:26.824Z,31.3
2019-04-03T07:16:12.789Z,31.6
2019-04-03T07:17:10.749Z,31.8
2019-04-03T07:17:52.405Z,32.1
2019-04-03T07:18:45.938Z,32.4
2019-04-03T07:19:32.691Z,32.5
2019-04-03T07:20:31.302Z,32.1
2019-04-03T07:21:12.720Z,32.1
2019-04-03T07:22:06.491Z,32
2019-04-03T07:22:53.536Z,31.9
2019-04-03T07:23:43.363Z,31.7
2019-04-03T07:24:35.556Z,31.6
2019-04-03T07:25:23.597Z,31.4
2019-04-03T07:26:16.285Z,31.3
2019-04-03T07:27:05.959Z,31.1
2019-04-03T07:27:53.077Z,31
2019-04-03T07:28:47.762Z,30.8
2019-04-03T07:29:36.636Z,30.7
2019-04-03T07:30:30.988Z,30.5
2019-04-03T07:31:13.863Z,30.4
2019-04-03T07:32:06.663Z,30.3
2019-04-03T07:32:57.683Z,30.1
2019-04-03T07:33:44.685Z,30
2019-04-03T07:34:37.618Z,29.9
2019-04-03T07:35:23.415Z,29.8
2019-04-03T07:36:18.330Z,29.6
2019-04-03T07:37:03.143Z,29.5
2019-04-03T07:37:58.623Z,29.4
2019-04-03T07:38:44.429Z,29.3
2019-04-03T07:39:33.789Z,29.2
2019-04-03T07:40:27.527Z,29.1
2019-04-03T07:41:14.538Z,28.9
2019-04-03T07:42:05.324Z,28.9
2019-04-03T07:42:58.031Z,28.7
2019-04-03T07:43:44.032Z,28.6
2019-04-03T07:44:38.795Z,28.5
2019-04-03T07:45:23.788Z,28.4
2019-04-03T07:46:14.632Z,28.3
2019-04-03T07:47:09.902Z,28.2
2019-04-03T07:47:53.488Z,28.1
2019-04-03T07:48:48.061Z,27.9
2019-04-03T07:49:33.687Z,27.9
2019-04-03T07:50:25.509Z,27.8
2019-04-03T07:51:17.675Z,27.6
2019-04-03T07:52:04.245Z,27.6
2019-04-03T07:52:59.122Z,27.4
2019-04-03T07:53:45.139Z,27.3
2019-04-03T07:54:37.632Z,27.3
2019-04-03T07:55:30.724Z,27.1
2019-04-03T07:56:14.882Z,27.1
2019-04-03T07:57:11.812Z,26.9
2019-04-03T07:57:54.912Z,26.8
2019-04-03T07:58:46.105Z,26.8
2019-04-03T07:59:39.507Z,26.6
2019-04-03T08:00:26.552Z,26.6
2019-04-03T08:01:24.114Z,26.4
2019-04-03T08:02:05.834Z,26.4
2019-04-03T08:03:00.703Z,26.3
2019-04-03T08:03:46.794Z,25.9
2019-04-03T08:05:48.606Z,26.8
2019-04-03T08:06:09.234Z,29.9
2019-04-03T08:06:49.652Z,30.4
2019-04-03T08:07:40.448Z,30.8
2019-04-03T08:08:31.981Z,31.2
2019-04-03T08:09:21.942Z,31.6
2019-04-03T08:10:11.408Z,31.8
2019-04-03T08:11:05.661Z,32.1
2019-04-03T08:11:51.000Z,32.4
2019-04-03T08:12:46.616Z,32.8
2019-04-03T08:13:32.211Z,32.3
2019-04-03T08:14:25.139Z,32.3
2019-04-03T08:15:15.744Z,32.2
2019-04-03T08:16:02.252Z,32.1
2019-04-03T08:17:01.434Z,31.9
2019-04-03T08:17:41.778Z,31.8
2019-04-03T08:18:34.010Z,31.7
2019-04-03T08:19:25.945Z,31.5
2019-04-03T08:20:12.583Z,31.4
2019-04-03T08:21:10.529Z,31.2
2019-04-03T08:21:53.006Z,31
2019-04-03T08:22:46.448Z,30.9
2019-04-03T08:23:32.164Z,30.8
2019-04-03T08:24:22.439Z,30.6
2019-04-03T08:25:17.866Z,30.5
2019-04-03T08:26:04.896Z,30.4
2019-04-03T08:26:56.782Z,30.3
2019-04-03T08:27:42.929Z,30.1
2019-04-03T08:28:40.966Z,30
2019-04-03T08:29:23.488Z,29.9
2019-04-03T08:30:17.880Z,29.8
2019-04-03T08:31:02.644Z,29.6
2019-04-03T08:31:59.088Z,29.5
2019-04-03T08:32:47.303Z,29.4
2019-04-03T08:33:40.864Z,29.3
2019-04-03T08:34:32.773Z,29.2
2019-04-03T08:35:37.690Z,29.1
2019-04-03T08:36:09.450Z,28.9
2019-04-03T08:36:54.188Z,28.8
2019-04-03T08:37:49.477Z,28.8
2019-04-03T08:38:34.687Z,28.6
2019-04-03T08:39:28.880Z,28.6
2019-04-03T08:40:13.953Z,28.4
2019-04-03T08:41:08.744Z,28.3
2019-04-03T08:41:58.260Z,28.2
2019-04-03T08:42:44.622Z,28.1
2019-04-03T08:43:38.225Z,28
2019-04-03T08:44:23.045Z,27.9
2019-04-03T08:46:03.548Z,27.7
2019-04-03T08:46:55.736Z,27.6
2019-04-03T08:47:51.725Z,27.5
2019-04-03T08:48:33.907Z,27.4
2019-04-03T08:49:27.784Z,27.3
2019-04-03T08:50:14.755Z,27.2
2019-04-03T08:51:11.332Z,27.1
2019-04-03T08:51:54.666Z,27
2019-04-03T08:52:50.036Z,26.9
2019-04-03T08:53:38.315Z,26.8
2019-04-03T08:54:25.424Z,26.8
2019-04-03T08:55:18.842Z,26.6
2019-04-03T08:56:07.271Z,26.6
2019-04-03T08:56:58.948Z,26.5
2019-04-03T08:57:54.143Z,26.1
2019-04-03T08:58:38.559Z,27.3
2019-04-03T08:59:29.205Z,28.5
2019-04-03T09:00:16.275Z,29.9
2019-04-03T09:01:13.091Z,30.8
2019-04-03T09:01:59.852Z,31.3
2019-04-03T09:02:50.217Z,31.6
2019-04-03T09:03:34.337Z,31.9
2019-04-03T09:04:29.344Z,32.2
2019-04-03T09:05:24.836Z,32.5
2019-04-03T09:06:07.197Z,32.8
2019-04-03T09:06:59.146Z,32.4
2019-04-03T09:07:46.798Z,32.3
2019-04-03T09:08:37.776Z,32.2
2019-04-03T09:09:24.146Z,32
2019-04-03T09:10:16.276Z,31.9
2019-04-03T09:11:09.851Z,31.8
2019-04-03T09:11:55.636Z,31.6
2019-04-03T09:12:49.053Z,31.4
2019-04-03T09:13:36.203Z,31.3
2019-04-03T09:14:32.520Z,31.2
2019-04-03T09:15:16.237Z,31
2019-04-03T09:16:13.748Z,30.9
2019-04-03T09:16:56.668Z,30.8
2019-04-03T09:17:46.533Z,30.6
2019-04-03T09:18:43.646Z,30.5
2019-04-03T09:19:27.621Z,30.4
2019-04-03T09:20:19.946Z,30.3
2019-04-03T09:21:07.173Z,30.1
2019-04-03T09:22:01.760Z,30
2019-04-03T09:22:46.515Z,29.9
2019-04-03T09:23:36.263Z,29.8
2019-04-03T09:24:31.993Z,29.7
2019-04-03T09:25:20.223Z,29.6
2019-04-03T09:26:10.079Z,29.4
2019-04-03T09:26:55.930Z,29.4
2019-04-03T09:27:50.538Z,29.3
2019-04-03T09:28:36.515Z,29.1
2019-04-03T09:29:25.110Z,29.1
2019-04-03T09:30:21.062Z,29
2019-04-03T09:31:07.220Z,28.8
2019-04-03T09:32:04.726Z,28.8
2019-04-03T09:32:48.114Z,28.6
2019-04-03T09:33:40.535Z,28.6
2019-04-03T09:34:38.639Z,28.4
2019-04-03T09:35:18.197Z,28.3
2019-04-03T09:36:14.824Z,28.3
2019-04-03T09:36:58.165Z,28.1
2019-04-03T09:37:53.212Z,28.1
2019-04-03T09:38:46.533Z,27.9
2019-04-03T09:40:23.014Z,27.8
2019-04-03T09:41:08.536Z,27.6
2019-04-03T09:41:59.731Z,27.6
2019-04-03T09:42:46.574Z,27.4
2019-04-03T09:43:42.595Z,27.4
2019-04-03T09:44:31.617Z,27.3
2019-04-03T09:45:17.482Z,27.2
2019-04-03T09:46:11.834Z,27.1
2019-04-03T09:46:57.919Z,27
2019-04-03T09:47:47.845Z,26.9
2019-04-03T09:48:41.778Z,26.8
2019-04-03T09:49:29.889Z,26.8
2019-04-03T09:50:26.361Z,26.6
2019-04-03T09:51:12.166Z,26.6
2019-04-03T09:52:03.686Z,26.2
2019-04-03T09:53:08.194Z,27.4
2019-04-03T09:53:39.307Z,29.3
2019-04-03T09:54:33.981Z,30
2019-04-03T09:55:18.956Z,30.8
2019-04-03T09:56:14.356Z,31.2
2019-04-03T09:57:15.976Z,31.6
2019-04-03T09:57:53.393Z,32.1
2019-04-03T09:58:43.506Z,32.4
2019-04-03T09:59:30.494Z,32.8
2019-04-03T10:00:22.338Z,32.9
2019-04-03T10:01:08.951Z,32.5
2019-04-03T10:02:00.160Z,32.3
2019-04-03T10:02:54.304Z,32.1
2019-04-03T10:03:42.553Z,31.9
2019-04-03T10:06:40.013Z,31.5
2019-04-03T10:07:14.585Z,31.3
2019-04-03T10:08:03.083Z,31.2
2019-04-03T10:08:52.464Z,31
2019-04-03T10:09:50.612Z,30.9
2019-04-03T10:10:34.413Z,30.7
2019-04-03T10:11:44.438Z,30.6
2019-04-03T10:12:12.927Z,30.4
2019-04-03T10:14:07.278Z,30.3
2019-04-03T10:14:42.797Z,30.1
2019-04-03T10:15:36.902Z,30.1
2019-04-03T10:17:18.668Z,29.8
2019-04-03T10:18:02.563Z,29.7
2019-04-03T10:18:54.780Z,29.6
2019-04-03T10:19:46.953Z,29.5
2019-04-03T10:20:32.952Z,29.4
2019-04-03T10:21:42.025Z,29.3
2019-04-03T10:22:13.427Z,29.2
2019-04-03T10:23:06.598Z,29.1
2019-04-03T10:23:52.079Z,29
2019-04-03T10:25:02.902Z,28.9
2019-04-03T10:25:34.783Z,28.8
2019-04-03T10:26:23.230Z,28.7
2019-04-03T10:27:16.976Z,28.6
2019-04-03T10:28:03.427Z,28.5
2019-04-03T10:28:58.649Z,28.4
2019-04-03T10:30:01.009Z,28.3
2019-04-03T10:30:34.439Z,28.2
2019-04-03T10:31:27.532Z,28.1
2019-04-03T10:32:14.411Z,28.1
2019-04-03T10:33:08.770Z,27.9
2019-04-03T10:33:54.091Z,27.9
2019-04-03T10:35:53.153Z,27.6
2019-04-03T10:36:39.767Z,27.6
2019-04-03T10:37:18.516Z,27.4
2019-04-03T10:38:05.206Z,27.4
2019-04-03T10:39:09.584Z,27.3
2019-04-03T10:39:56.473Z,27.2
2019-04-03T10:40:36.416Z,27.1
2019-04-03T10:41:27.607Z,27.1
2019-04-03T10:42:15.964Z,26.9
2019-04-03T10:43:14.415Z,26.9
2019-04-03T10:43:55.621Z,26.8
2019-04-03T10:44:44.334Z,26.7
2019-04-03T10:45:34.148Z,26.6
2019-04-03T10:46:29.213Z,26.6
2019-04-03T10:47:14.923Z,26.2
2019-04-03T10:48:07.520Z,27.4
2019-04-03T10:48:54.984Z,29
2019-04-03T10:49:46.165Z,30.1
2019-04-03T10:50:39.765Z,30.8
2019-04-03T10:51:26.295Z,31.3
2019-04-03T10:52:18.995Z,31.8
2019-04-03T10:53:05.063Z,32.2
2019-04-03T10:54:00.033Z,32.5
2019-04-03T10:54:47.626Z,32.9
2019-04-03T10:55:39.588Z,32.5
2019-04-03T10:56:25.054Z,32.5
2019-04-03T10:57:16.015Z,32.2
2019-04-03T10:58:15.659Z,32.1
2019-04-03T10:59:21.980Z,31.8
2019-04-03T10:59:45.952Z,31.6
2019-04-03T11:00:39.499Z,31.5
2019-04-03T11:01:25.632Z,31.4
2019-04-03T11:02:15.795Z,31.2
2019-04-03T11:03:05.254Z,31.1
2019-04-03T11:03:55.687Z,30.9
2019-04-03T11:04:44.158Z,30.8
2019-04-03T11:05:36.667Z,30.7
2019-04-03T11:06:26.920Z,30.6
2019-04-03T11:07:15.107Z,30.4
2019-04-03T11:08:20.484Z,30.3
2019-04-03T11:08:56.461Z,30.2
2019-04-03T11:09:45.762Z,30.1
2019-04-03T11:10:36.897Z,30
2019-04-03T11:11:31.335Z,29.9
2019-04-03T11:12:33.815Z,29.8
2019-04-03T11:13:10.047Z,29.7
2019-04-03T11:13:56.035Z,29.6
2019-04-03T11:14:49.659Z,29.5
2019-04-03T11:15:37.499Z,29.4
2019-04-03T11:16:26.832Z,29.3
2019-04-03T11:17:34.614Z,29.3
2019-04-03T11:18:08.446Z,29.1
2019-04-03T11:19:31.671Z,29
2019-04-03T11:19:52.383Z,28.8
2019-04-03T11:20:44.816Z,28.8
2019-04-03T11:21:46.392Z,28.7
2019-04-03T11:24:47.758Z,28.6
2019-04-03T11:25:01.261Z,28.3
2019-04-03T11:25:59.378Z,28.3
2019-04-03T11:26:42.403Z,28.1
2019-04-03T11:27:58.272Z,28.1
2019-04-03T11:28:23.233Z,27.9
2019-04-03T11:30:27.506Z,27.8
2019-04-03T11:31:03.195Z,27.6
2019-04-03T11:31:53.582Z,27.6